• Join FlightAware (Why Join?)
  • Login
  • US Flag 
03:36AM EDT


 

Airport Tracker/Info


-or-


 

Live Flight TrackerFlight Track Log ✈ AAY855 ✈ 06-Mar-2014 ✈ KSBN - KPIE

Flight Track Log - Related Links

Times and Time Zones

All times are in EST time to prevent confusion due to time zone crossing. See the AAY855 flight status page for this flight to view local times or setup timezone preferences in your user account.

Time Position Orientation Groundspeed Altitude Reporting Facility
EST Latitude Longitude Course Direction KTS MPH feet Rate Location/Type
09:21AM 41.6747 -86.2108 151° Southeast 209 241 4,200  Level Chicago Center
09:22AM 41.6131 -86.1644 151° Southeast 252 290 7,000 2,520 Climbing Chicago Center
09:23AM 41.5450 -86.1186 153° Southeast 272 313 9,500 1,920 Climbing Chicago Center
09:24AM 41.4564 -86.0967 169° South 334 384 11,000 1,920 Climbing Chicago Center
09:25AM 41.3364 -86.0842 176° South 364 419 13,500 2,220 Climbing Chicago Center
09:26AM 41.2336 -86.0547 168° South 383 441 15,600 1,800 Climbing Chicago Center
09:27AM 41.1281 -86.0075 161° South 401 461 17,200 1,500 Climbing Chicago Center
09:28AM 41.0164 -85.9561 161° South 422 486 18,700 1,740 Climbing Chicago Center
09:29AM 40.9033 -85.9047 161° South 430 495 20,800 1,740 Climbing Chicago Center
09:30AM 40.7892 -85.8567 162° South 432 497 22,300 1,500 Climbing Chicago Center
09:31AM 40.6614 -85.8031 162° South 438 504 24,000 1,620 Climbing Chicago Center
09:32AM 40.5419 -85.7589 164° South 443 510 25,700 1,560 Climbing Chicago Center
09:33AM 40.4250 -85.7489 176° South 425 489 27,300 1,440 Climbing Chicago Center
09:34AM 40.2628 -85.6889 164° South 428 493 29,000 720 Climbing Indianapolis Center
09:35AM 40.1489 -85.6383 161° South 428 493 29,000  Level Indianapolis Center
09:36AM 40.0331 -85.5872 161° South 431 496 29,000  Level Indianapolis Center
09:37AM 39.9175 -85.5369 162° South 432 497 29,000  Level Indianapolis Center
09:39AM 39.8028 -85.4875 162° South 432 497 29,000  Level Indianapolis Center
09:40AM 39.6875 -85.4381 162° South 432 497 29,000  Level Indianapolis Center
09:41AM 39.5794 -85.3578 150° Southeast 442 509 29,000  Level Indianapolis Center
09:42AM 39.4508 -85.2625 150° Southeast 443 510 29,000  Level Indianapolis Center
09:43AM 39.3383 -85.1933 155° Southeast 441 507 29,000  Level Indianapolis Center
09:44AM 39.2242 -85.1536 165° South 429 494 29,000  Level Indianapolis Center
09:45AM 39.1047 -85.1206 168° South 432 497 29,000  Level Indianapolis Center
09:46AM 38.9875 -85.0861 167° South 431 496 29,000  Level Indianapolis Center
09:47AM 38.8703 -85.0456 165° South 433 498 29,000  Level Indianapolis Center
09:48AM 38.7303 -84.9925 164° South 435 501 29,000  Level Indianapolis Center
09:49AM 38.6200 -84.9553 165° South 434 499 29,000  Level Indianapolis Center
09:50AM 38.5017 -84.9217 167° South 433 498 29,000  Level Indianapolis Center
09:51AM 38.3664 -84.8794 166° South 433 498 29,000  Level Indianapolis Center
09:52AM 38.2558 -84.8372 163° South 421 484 29,000  Level Indianapolis Center
09:53AM 38.1428 -84.8006 166° South 421 484 29,000  Level Indianapolis Center
09:54AM 38.0306 -84.7644 166° South 420 483 29,000  Level Indianapolis Center
09:55AM 37.9197 -84.7297 166° South 416 479 29,000  Level Indianapolis Center
09:56AM 37.7900 -84.6894 166° South 414 476 29,000 -240 Level Indianapolis Center
09:57AM 37.6783 -84.6533 166° South 413 475 28,600 -780 Descending Indianapolis Center
09:58AM 37.5664 -84.6183 166° South 413 475 27,400 -780 Descending Indianapolis Center
09:59AM 37.4489 -84.5817 166° South 427 491 27,000 -240 Descending Indianapolis Center
10:00AM 37.3311 -84.5428 165° South 431 496 27,000  Level Indianapolis Center
10:01AM 37.1942 -84.4975 165° South 432 497 27,000  Level Indianapolis Center
10:02AM 37.0786 -84.4600 165° South 432 497 27,000  Level Indianapolis Center
10:03AM 36.9608 -84.4242 166° South 432 497 27,000  Level Indianapolis Center
10:04AM 36.8444 -84.3889 166° South 432 497 27,000  Level Indianapolis Center
10:05AM 36.7294 -84.3536 166° South 431 496 27,000  Level Indianapolis Center
10:06AM 36.5947 -84.3100 165° South 430 495 27,000  Level Indianapolis Center
10:07AM 36.4811 -84.2722 165° South 430 495 27,000  Level Indianapolis Center
10:09AM 36.3664 -84.2383 167° South 427 491 27,000  Level Indianapolis Center
10:10AM 36.2503 -84.2039 167° South 426 490 27,000  Level Indianapolis Center
10:11AM 36.1344 -84.1686 166° South 426 490 27,000  Level Indianapolis Center
10:12AM 36.0186 -84.1333 166° South 426 490 27,000  Level Indianapolis Center
10:13AM 35.8822 -84.0900 166° South 423 487 27,000  Level Indianapolis Center
10:14AM 35.7686 -84.0561 166° South 421 484 27,000  Level Indianapolis Center
10:15AM 35.6536 -84.0231 167° South 420 483 27,000  Level Indianapolis Center
10:16AM 35.5222 -83.9853 167° South 420 483 27,000  Level Atlanta Center
10:17AM 35.4075 -83.9497 166° South 420 483 27,000  Level Atlanta Center
10:18AM 35.2947 -83.9142 166° South 414 476 27,000  Level Atlanta Center
10:19AM 35.2069 -83.8889 167° South 414 476 27,000  Level Atlanta Center
10:20AM 35.0881 -83.8533 166° South 409 471 27,000  Level Atlanta Center
10:21AM 34.9753 -83.8208 167° South 409 471 27,000  Level Atlanta Center
10:22AM 34.8667 -83.7831 164° South 415 478 27,000  Level Atlanta Center
10:23AM 34.7561 -83.7481 165° South 415 478 27,000  Level Atlanta Center
10:24AM 34.6433 -83.7156 167° South 415 478 27,000  Level Atlanta Center
10:25AM 34.5242 -83.6833 167° South 407 468 27,000  Level Atlanta Center
10:26AM 34.4114 -83.6486 166° South 407 468 27,000  Level Atlanta Center
10:27AM 34.3006 -83.6164 166° South 413 475 27,000  Level Atlanta Center
10:28AM 34.1919 -83.5842 166° South 413 475 27,000  Level Atlanta Center
10:29AM 34.0792 -83.5522 167° South 413 475 27,000  Level Atlanta Center
10:30AM 33.9706 -83.5228 167° South 413 475 27,000  Level Atlanta Center
10:31AM 33.8597 -83.4883 166° South 413 475 27,000  Level Atlanta Center
10:32AM 33.7617 -83.4617 167° South 408 470 27,000  Level Atlanta Center
10:33AM 33.6508 -83.4300 167° South 408 470 27,000  Level Atlanta Center
10:34AM 33.5381 -83.3983 167° South 413 475 27,000  Level Atlanta Center
10:35AM 33.4292 -83.3692 167° South 408 470 27,000  Level Atlanta Center
10:36AM 33.3164 -83.3403 168° South 413 475 27,000 360 Level Atlanta Center
10:37AM 33.1931 -83.3017 165° South 413 475 27,800 480 Climbing Atlanta Center
10:38AM 33.0822 -83.2703 167° South 413 475 28,000 60 Climbing Atlanta Center
10:39AM 32.9839 -83.2389 165° South 410 472 28,000  Level Atlanta Center
10:40AM 32.8583 -83.2031 167° South 415 478 28,000  Level Atlanta Center
10:41AM 32.7456 -83.1769 169° South 415 478 28,000  Level Atlanta Center
10:42AM 32.6344 -83.1411 165° South 415 478 28,000  Level Atlanta Center
10:43AM 32.5236 -83.1075 166° South 415 478 28,000  Level Atlanta Center
10:44AM 32.4108 -83.0769 167° South 415 478 28,000  Level Atlanta Center
10:45AM 32.3019 -83.0461 167° South 415 478 28,000  Level Atlanta Center
10:47AM 32.1122 -82.9931 167° South 423 487 28,000  Level Jacksonville Center
10:48AM 31.9911 -82.9586 166° South 413 475 28,000  Level Jacksonville Center
10:49AM 31.8825 -82.9292 167° South 413 475 28,000  Level Jacksonville Center
10:50AM 31.7783 -82.9000 167° South 407 468 28,000  Level Jacksonville Center
10:51AM 31.6656 -82.8681 166° South 407 468 28,000  Level Jacksonville Center
10:52AM 31.5528 -82.8364 167° South 412 474 28,000  Level Jacksonville Center
10:53AM 31.4461 -82.8050 166° South 412 474 28,000  Level Jacksonville Center
10:54AM 31.3458 -82.7806 168° South 398 458 28,000  Level Jacksonville Center
10:55AM 31.2519 -82.7542 166° South 368 423 28,000  Level Jacksonville Center
10:56AM 31.1642 -82.7300 167° South 347 399 28,000 -60 Level Jacksonville Center
10:57AM 31.0597 -82.7033 168° South 342 394 27,900 -60 Descending Jacksonville Center
10:58AM 30.9636 -82.6794 168° South 342 394 27,900  Level Jacksonville Center
10:59AM 30.8739 -82.6625 171° South 342 394 27,900  Level Jacksonville Center
11:00AM 30.7864 -82.6992 200° South 324 373 27,900  Level Jacksonville Center
11:01AM 30.7008 -82.7453 205° Southwest 324 373 27,900  Level Jacksonville Center
11:02AM 30.6172 -82.7911 205° Southwest 331 381 27,900  Level Jacksonville Center
11:03AM 30.5317 -82.8081 190° South 319 367 27,900  Level Jacksonville Center
11:04AM 30.4503 -82.7383 144° Southeast 305 351 28,000  Climbing Jacksonville Center
11:05AM 30.3667 -82.6686 144° Southeast 332 382 27,900 -120 Descending Jacksonville Center
11:06AM 30.2642 -82.6281 161° South 366 421 27,800 -480 Descending Jacksonville Center
11:07AM 30.1617 -82.5850 160° South 384 442 27,000 -480 Descending Jacksonville Center
11:08AM 30.0572 -82.5469 162° South 391 450 26,900 -60 Descending Jacksonville Center
11:09AM 29.9486 -82.4994 159° South 396 456 26,900 -480 Level Jacksonville Center
11:10AM 29.8461 -82.4567 160° South 401 461 26,000 -960 Descending Jacksonville Center
11:11AM 29.7394 -82.4142 161° South 401 461 25,000 -900 Descending Jacksonville Center
11:12AM 29.6369 -82.3764 162° South 401 461 24,200 -600 Descending Jacksonville Center
11:13AM 29.5325 -82.3508 168° South 388 447 23,900 -180 Descending Jacksonville Center
11:14AM 29.4281 -82.3369 173° South 388 447 23,900 -600 Level Jacksonville Center
11:15AM 29.3217 -82.3281 176° South 388 447 22,700 -1,380 Descending Jacksonville Center
11:16AM 29.2256 -82.3167 174° South 388 447 21,200 -1,800 Descending Jacksonville Center
11:17AM 29.1233 -82.3031 173° South 388 447 19,100 -2,100 Descending Jacksonville Center
11:18AM 29.0231 -82.2894 173° South 383 441 17,100 -2,100 Descending Jacksonville Center
11:19AM 28.9186 -82.2806 176° South 365 420 14,900 -2,040 Descending Jacksonville Center
11:20AM 28.8289 -82.2692 174° South 344 396 13,100 -900 Descending Jacksonville Center
11:22AM 28.6500 -82.2500 175° South 300 345 12,000 -900 Descending Tampa TRACON
11:23AM 28.5667 -82.3000 208° Southwest 310 357 10,200 -1,020 Descending Tampa TRACON
11:24AM 28.5333 -82.4000 249° West 295 339 10,000 -120 Descending Tampa TRACON
11:25AM 28.5167 -82.4833 257° West 292 336 10,000  Level Tampa TRACON
11:26AM 28.4833 -82.5667 246° West 299 344 10,000 -120 Level Tampa TRACON
11:27AM 28.4500 -82.6500 246° West 292 336 9,800 -780 Descending Tampa TRACON
11:28AM 28.3833 -82.7000 213° Southwest 259 298 8,500 -1,320 Descending Tampa TRACON
11:29AM 28.3333 -82.7333 210° Southwest 244 281 7,200 -1,320 Descending Tampa TRACON
11:30AM 28.2667 -82.7667 204° Southwest 236 272 5,900 -1,200 Descending Tampa TRACON
11:31AM 28.2000 -82.7667 180° South 238 274 4,800 -960 Descending Tampa TRACON
11:32AM 28.1333 -82.7667 180° South 241 277 4,000 -600 Descending Tampa TRACON
11:33AM 28.0667 -82.7833 192° South 240 276 3,700 -540 Descending Tampa TRACON
11:34AM 28.0000 -82.7833 180° South 245 282 3,000 -360 Descending Tampa TRACON
11:35AM 27.9333 -82.7833 180° South 243 280 3,000  Level Tampa TRACON
11:36AM 27.8667 -82.7833 180° South 239 275 3,000 -540 Level Tampa TRACON
11:37AM 27.8000 -82.7833 180° South 236 272 2,000 -540 Descending Tampa TRACON
11:38AM 27.7333 -82.7833 180° South 226 260 2,000  Level Tampa TRACON
11:39AM 27.7167 -82.7333 111° Southeast 199 229 2,000  Level Tampa TRACON
11:40AM 27.7333 -82.6667 74° East 211 243 2,000  Level Tampa TRACON
11:41AM 27.7833 -82.6667 360° North 204 235 2,000 -420 Level Tampa TRACON
11:42AM 27.8333 -82.6833 344° North 182 209 1,200 -780 Descending Tampa TRACON
11:43AM 27.8833 -82.6833 360° North 141 162 400 -780 Descending Tampa TRACON